Time;durP1;ratioP1;P1;durP2;ratioP2;P2;SDS_P1;SDS_P2;PMS_P1;PMS_P2;Temp;Humidity;BMP_temperature;BMP_pressure;BME280_temperature;BME280_humidity;BME280_pressure;Samples;Min_cycle;Max_cycle;Signal;HPM_P1;HPM_P2
2021/05/15 00:01:39;;;;;;;22.03;11.90;;;;;;;-142.75;64.10;77125.44;5105316;27;20034;-83
2021/05/15 00:04:05;;;;;;;16.63;11.50;;;;;;;-142.75;64.58;77121.50;5115502;27;20356;-80
2021/05/15 00:06:30;;;;;;;;;;;;;;;-142.75;64.20;77117.56;5092992;27;20268;-82
2021/05/15 00:08:56;;;;;;;21.73;11.70;;;;;;;-142.75;64.07;77113.63;5110687;27;20282;-81
2021/05/15 00:11:21;;;;;;;19.90;11.98;;;;;;;-142.75;64.30;77111.66;5103419;27;20041;-79
2021/05/15 00:13:47;;;;;;;21.25;12.05;;;;;;;-142.75;64.59;77113.63;5071398;27;20063;-81
2021/05/15 00:16:13;;;;;;;18.90;12.05;;;;;;;-142.75;64.61;77097.88;5069781;27;20025;-83
2021/05/15 00:18:39;;;;;;;20.98;12.75;;;;;;;-142.75;63.93;77097.88;5112130;27;20113;-82
2021/05/15 00:21:06;;;;;;;21.93;12.83;;;;;;;-142.75;64.04;77105.75;5106769;27;20041;-82
2021/05/15 00:23:32;;;;;;;21.87;12.47;;;;;;;-142.75;64.10;77105.75;5070329;27;20030;-81
2021/05/15 00:25:59;;;;;;;22.00;13.27;;;;;;;-142.75;63.75;77099.84;5108090;27;20029;-82
2021/05/15 00:28:25;;;;;;;20.70;11.80;;;;;;;-142.75;64.36;77090.00;5110443;27;20404;-82
2021/05/15 00:30:50;;;;;;;18.92;11.50;;;;;;;-142.75;63.85;77082.13;5099282;28;20054;-81
2021/05/15 00:33:15;;;;;;;21.48;10.80;;;;;;;-142.75;64.07;77084.09;5080815;27;20015;-81
2021/05/15 00:35:41;;;;;;;19.33;10.67;;;;;;;-142.75;63.98;77078.19;5078160;27;20017;-82
2021/05/15 00:38:06;;;;;;;17.17;10.93;;;;;;;-142.75;64.18;77074.25;5110459;27;20353;-82
2021/05/15 00:40:31;;;;;;;20.55;11.00;;;;;;;-142.75;64.19;77074.25;5068394;27;21824;-83
2021/05/15 00:42:57;;;;;;;18.15;10.70;;;;;;;-142.75;63.70;77062.44;5106443;27;20076;-82
2021/05/15 00:45:22;;;;;;;13.90;10.57;;;;;;;-142.75;63.90;77062.44;5059494;27;20456;-80
2021/05/15 00:47:47;;;;;;;18.60;11.53;;;;;;;-142.75;64.05;77062.44;5108237;27;20079;-80
2021/05/15 00:50:13;;;;;;;17.75;10.80;;;;;;;-142.75;64.02;77056.53;5108574;27;20307;-82
2021/05/15 00:52:38;;;;;;;19.20;10.98;;;;;;;-142.75;64.39;77046.69;5091442;27;20027;-82
2021/05/15 00:55:10;;;;;;;19.33;11.32;;;;;;;-142.75;64.39;77046.69;5110438;27;20470;-83
2021/05/15 00:57:36;;;;;;;19.70;10.37;;;;;;;-142.75;63.95;77044.72;5092953;27;20057;-82
2021/05/15 01:00:04;;;;;;;21.00;10.97;;;;;;;-142.75;64.33;77054.56;5106302;27;20036;-82
2021/05/15 01:02:30;;;;;;;18.10;10.80;;;;;;;-142.75;64.61;77056.53;5111601;27;20033;-82
2021/05/15 01:04:55;;;;;;;20.25;10.73;;;;;;;-142.75;64.44;77048.66;5104440;27;20045;-83
2021/05/15 01:07:20;;;;;;;24.83;10.82;;;;;;;-142.75;64.22;77046.69;5104975;27;20039;-82
2021/05/15 01:09:46;;;;;;;20.50;10.67;;;;;;;-142.75;64.17;77046.69;5099037;28;20049;-82
2021/05/15 01:12:11;;;;;;;16.17;9.50;;;;;;;-142.75;64.01;77052.59;5113251;27;20844;-80
2021/05/15 01:14:38;;;;;;;14.63;9.82;;;;;;;-142.75;64.33;77048.66;5097857;27;20030;-82
2021/05/15 01:17:07;;;;;;;18.23;10.63;;;;;;;-142.75;63.93;77030.94;5105529;27;20539;-83
2021/05/15 01:19:33;;;;;;;19.30;11.23;;;;;;;-142.75;64.29;77040.78;5098134;28;20121;-81
2021/05/15 01:21:58;;;;;;;21.30;10.63;;;;;;;-142.75;64.35;77036.84;5101035;28;20066;-82
2021/05/15 01:24:24;;;;;;;19.33;10.90;;;;;;;-142.75;64.66;77046.69;5113521;27;20030;-79
2021/05/15 01:26:50;;;;;;;18.95;9.65;;;;;;;-142.75;64.42;77042.75;5106993;27;20264;-82
2021/05/15 01:29:15;;;;;;;;;;;;;;;-142.75;64.54;77040.78;5112919;27;20030;-83
2021/05/15 01:31:40;;;;;;;21.90;11.27;;;;;;;-142.75;64.38;77034.88;5108874;27;19913;-81
2021/05/15 01:34:07;;;;;;;17.57;10.47;;;;;;;-142.75;63.47;77032.91;5092961;27;20105;-81
2021/05/15 01:36:39;;;;;;;18.60;10.17;;;;;;;-142.75;63.81;77038.81;5072873;27;20664;-81
2021/05/15 01:39:08;;;;;;;18.50;10.38;;;;;;;-142.75;63.98;77046.69;5098726;27;20023;-81
2021/05/15 01:41:33;;;;;;;21.50;11.07;;;;;;;-142.75;64.06;77036.84;5081110;27;20025;-81
2021/05/15 01:43:58;;;;;;;20.10;10.07;;;;;;;-142.75;64.47;77038.81;5114810;27;20034;-83
2021/05/15 01:46:24;;;;;;;23.10;10.27;;;;;;;-142.75;64.14;77040.78;5097639;28;20029;-79
2021/05/15 01:48:50;;;;;;;19.77;10.52;;;;;;;-142.75;64.44;77034.88;5107313;27;20273;-80
2021/05/15 01:51:15;;;;;;;16.83;10.52;;;;;;;-142.75;64.68;77028.97;5112227;27;20031;-81
2021/05/15 01:53:46;;;;;;;20.27;10.82;;;;;;;-142.75;64.61;77025.03;5107192;27;20023;-80
2021/05/15 01:56:13;;;;;;;18.23;10.70;;;;;;;-142.75;64.56;77028.97;5097679;28;20053;-79
2021/05/15 01:58:40;;;;;;;19.00;10.27;;;;;;;-142.75;64.53;77028.97;5086252;27;20034;-83
2021/05/15 02:01:05;;;;;;;;;;;;;;;-142.75;64.15;77030.94;5057542;27;20053;-82
2021/05/15 02:03:32;;;;;;;18.30;9.80;;;;;;;-142.75;64.28;77021.09;5109594;27;20486;-81
2021/05/15 02:05:57;;;;;;;18.03;9.33;;;;;;;-142.75;64.19;77015.19;5065426;27;20097;-81
2021/05/15 02:08:23;;;;;;;18.73;10.05;;;;;;;-142.75;64.07;77015.19;5065817;27;20041;-81
2021/05/15 02:10:50;;;;;;;19.15;10.00;;;;;;;-142.75;64.20;76999.44;5111911;27;20019;-80
2021/05/15 02:13:18;;;;;;;16.83;9.73;;;;;;;-142.75;64.70;77001.41;5104854;27;20033;-81
2021/05/15 02:15:44;;;;;;;19.70;9.57;;;;;;;-142.75;64.98;77009.28;5087414;27;20029;-81
2021/05/15 02:18:09;;;;;;;;;;;;;;;-142.75;64.94;77021.09;5081853;27;20046;-81
2021/05/15 02:20:35;;;;;;;15.90;10.10;;;;;;;-142.75;64.43;77015.19;5104145;27;20000;-81
2021/05/15 02:23:01;;;;;;;16.95;10.35;;;;;;;-142.75;64.73;77003.38;5095015;27;20019;-79
2021/05/15 02:25:27;;;;;;;18.65;9.85;;;;;;;-142.75;64.52;77013.22;5106551;27;20482;-80
2021/05/15 02:27:53;;;;;;;21.60;10.90;;;;;;;-142.75;64.76;77007.31;5106975;27;20025;-80
2021/05/15 02:30:20;;;;;;;18.30;11.13;;;;;;;-142.75;65.03;77013.22;5104327;28;20036;-81
2021/05/15 02:32:45;;;;;;;19.50;11.80;;;;;;;-142.75;65.12;77001.41;5079431;27;20512;-82
2021/05/15 02:35:11;;;;;;;19.98;11.48;;;;;;;-142.75;64.87;77007.31;5095542;28;20034;-80
2021/05/15 02:37:37;;;;;;;18.27;10.68;;;;;;;-142.75;65.01;77009.28;5065794;27;20033;-80
2021/05/15 02:40:04;;;;;;;16.95;10.25;;;;;;;-142.75;65.00;77011.25;5071958;27;20024;-80
2021/05/15 02:42:29;;;;;;;20.13;11.63;;;;;;;-142.75;64.63;76995.50;5098760;27;20475;-81
2021/05/15 02:44:54;;;;;;;18.90;10.63;;;;;;;-142.75;64.36;76997.47;5106358;27;20033;-81
2021/05/15 02:47:21;;;;;;;16.98;9.75;;;;;;;-142.75;64.76;77007.31;5087429;27;20021;-80
2021/05/15 02:49:46;;;;;;;;;;;;;;;-142.75;64.51;77003.38;5096187;27;20483;-80
2021/05/15 02:52:11;;;;;;;18.88;9.82;;;;;;;-142.75;64.78;76999.44;5099572;28;19918;-80
2021/05/15 02:54:36;;;;;;;18.55;10.40;;;;;;;-142.75;64.94;77003.38;5102601;28;20049;-81
2021/05/15 02:57:02;;;;;;;18.13;10.63;;;;;;;-142.75;64.50;76987.63;5105079;28;20030;-81
2021/05/15 02:59:27;;;;;;;19.75;11.02;;;;;;;-142.75;64.63;76989.59;5072291;28;20288;-80
2021/05/15 03:01:52;;;;;;;15.23;10.13;;;;;;;-142.75;64.50;76977.78;5072390;28;20110;-79
2021/05/15 03:04:18;;;;;;;22.55;11.85;;;;;;;-142.75;64.13;76975.81;5111542;28;20682;-80
2021/05/15 03:06:43;;;;;;;19.63;11.48;;;;;;;-142.75;64.41;76977.78;5070168;28;20095;-80
2021/05/15 03:09:08;;;;;;;16.27;9.88;;;;;;;-142.75;64.50;76981.72;5112280;28;20445;-81
2021/05/15 03:11:33;;;;;;;21.03;11.00;;;;;;;-142.75;64.48;76977.78;5101590;28;20476;-81
2021/05/15 03:13:59;;;;;;;16.87;10.43;;;;;;;-142.75;64.84;76989.59;5079111;28;20273;-81
2021/05/15 03:16:24;;;;;;;23.63;10.57;;;;;;;-142.75;64.25;76981.72;5104991;28;20291;-80
2021/05/15 03:18:49;;;;;;;17.38;10.32;;;;;;;-142.75;64.02;76967.94;5074754;27;20322;-82
2021/05/15 03:21:14;;;;;;;19.33;9.93;;;;;;;-142.75;64.31;76967.94;5108813;27;20144;-81
2021/05/15 03:23:40;;;;;;;19.77;10.90;;;;;;;-142.75;64.37;76962.03;5101967;27;20042;-81
2021/05/15 03:26:05;;;;;;;21.50;10.43;;;;;;;-142.75;63.99;76964.00;5083649;27;20272;-82
2021/05/15 03:28:30;;;;;;;22.48;10.57;;;;;;;-142.75;64.45;76971.88;5076533;27;20405;-80
2021/05/15 03:30:56;;;;;;;18.37;10.70;;;;;;;-142.75;63.70;76964.00;5114164;27;20030;-81
2021/05/15 03:33:21;;;;;;;21.10;10.20;;;;;;;-142.75;63.55;76964.00;5106718;27;20109;-80
2021/05/15 03:35:46;;;;;;;19.47;10.27;;;;;;;-142.75;64.12;76977.78;5101215;27;20021;-81
2021/05/15 03:38:11;;;;;;;20.57;10.57;;;;;;;-142.75;64.36;76981.72;5115754;27;20835;-79
2021/05/15 03:40:37;;;;;;;23.53;10.90;;;;;;;-142.75;64.73;76983.69;5098751;28;20276;-80
2021/05/15 03:43:03;;;;;;;21.35;10.13;;;;;;;-142.75;64.88;76991.56;5060596;27;20021;-81
2021/05/15 03:45:29;;;;;;;18.70;11.37;;;;;;;-142.75;65.25;76991.56;5090043;27;20023;-82
2021/05/15 03:47:54;;;;;;;20.42;10.93;;;;;;;-142.75;65.06;76985.66;5096806;27;20115;-80
2021/05/15 03:50:22;;;;;;;23.08;10.88;;;;;;;-142.75;65.07;76979.75;5075762;27;20028;-83
2021/05/15 03:52:47;;;;;;;20.73;11.13;;;;;;;-142.75;65.01;76975.81;5082581;27;20027;-81
2021/05/15 03:55:13;;;;;;;21.15;10.70;;;;;;;-142.75;64.96;76979.75;5079415;27;20411;-80
2021/05/15 03:57:38;;;;;;;22.33;10.43;;;;;;;-142.75;64.50;76973.84;5103704;27;20027;-81
2021/05/15 04:00:04;;;;;;;18.85;10.05;;;;;;;-142.75;64.94;76971.88;5067750;27;20028;-81
2021/05/15 04:02:30;;;;;;;18.52;10.20;;;;;;;-142.75;64.60;76958.09;5109649;27;20105;-81
2021/05/15 04:04:57;;;;;;;25.98;10.40;;;;;;;-142.75;64.87;76958.09;5112318;27;20158;-81
2021/05/15 04:07:22;;;;;;;19.13;9.95;;;;;;;-142.75;65.21;76967.94;5059766;27;20029;-80
2021/05/15 04:09:48;;;;;;;17.45;10.82;;;;;;;-142.75;65.44;76971.88;5119794;27;20038;-83
2021/05/15 04:12:14;;;;;;;19.70;9.43;;;;;;;-142.75;65.36;76977.78;5084039;27;20019;-81
2021/05/15 04:14:46;;;;;;;17.90;9.50;;;;;;;-142.75;65.34;76983.69;5085368;27;20269;-80
2021/05/15 04:19:37;;;;;;;20.25;10.07;;;;;;;-142.75;64.91;76991.56;5092750;27;20090;-81
2021/05/15 04:22:03;;;;;;;19.15;10.38;;;;;;;-142.75;65.12;76983.69;5077066;27;20021;-81
2021/05/15 04:24:29;;;;;;;19.58;10.50;;;;;;;-142.75;65.74;76975.81;5082526;27;20029;-81
2021/05/15 04:26:57;;;;;;;20.45;10.30;;;;;;;-142.75;66.18;76979.75;5109692;27;20022;-81
2021/05/15 04:29:23;;;;;;;15.73;9.93;;;;;;;-142.75;65.61;76979.75;5081812;27;20032;-80
2021/05/15 04:31:50;;;;;;;27.92;11.27;;;;;;;-142.75;65.46;76979.75;5076595;27;20078;-80
2021/05/15 04:34:15;;;;;;;;;;;;;;;-142.75;66.38;76973.84;5086782;27;20037;-80
2021/05/15 04:36:41;;;;;;;19.90;10.73;;;;;;;-142.75;65.20;76981.72;5091268;27;19911;-81
2021/05/15 04:39:06;;;;;;;17.85;10.68;;;;;;;-142.75;64.42;76979.75;5106730;27;20018;-81
2021/05/15 04:41:32;;;;;;;24.45;12.40;;;;;;;-142.75;65.28;76979.75;5108368;27;20023;-80
2021/05/15 04:43:57;;;;;;;19.88;11.98;;;;;;;-142.75;64.60;76952.19;5110312;27;20027;-81
2021/05/15 04:46:22;;;;;;;19.07;11.97;;;;;;;-142.75;64.57;76952.19;5092502;27;20494;-82
2021/05/15 04:48:48;;;;;;;26.73;12.18;;;;;;;-142.75;64.97;76942.34;5082373;27;20945;-80
2021/05/15 04:51:13;;;;;;;21.20;12.03;;;;;;;-142.75;65.64;76936.44;5086592;27;20038;-83
2021/05/15 04:53:38;;;;;;;28.40;13.63;;;;;;;-142.75;65.51;76938.41;5113432;27;20662;-82
2021/05/15 04:56:05;;;;;;;29.33;13.50;;;;;;;-142.75;65.43;76936.44;5084128;27;20030;-82
2021/05/15 04:58:30;;;;;;;23.00;13.30;;;;;;;-142.75;65.64;76914.78;5110610;27;20477;-82
2021/05/15 05:00:55;;;;;;;20.88;12.18;;;;;;;-142.75;65.28;76920.69;5084183;27;20027;-84
2021/05/15 05:03:21;;;;;;;26.95;13.13;;;;;;;-142.75;65.19;76928.56;5112659;27;20025;-81
2021/05/15 05:05:46;;;;;;;29.02;14.20;;;;;;;-142.75;65.04;76924.63;5115057;27;20026;-82
2021/05/15 05:08:11;;;;;;;25.75;13.10;;;;;;;-142.75;64.36;76908.88;5110659;27;20031;-83
2021/05/15 05:10:37;;;;;;;21.35;13.13;;;;;;;-142.75;64.29;76899.03;5111749;27;20067;-81
2021/05/15 05:13:06;;;;;;;23.20;12.32;;;;;;;-142.75;63.60;76889.19;5102178;28;20032;-82
2021/05/15 05:15:32;;;;;;;23.13;13.23;;;;;;;-142.75;64.56;76879.34;5088049;27;20046;-81
2021/05/15 05:17:57;;;;;;;22.52;12.35;;;;;;;-142.75;64.37;76883.28;5087572;27;20391;-81
2021/05/15 05:20:23;;;;;;;21.85;13.38;;;;;;;-142.75;63.95;76871.47;5076961;27;20033;-81
2021/05/15 05:22:49;;;;;;;29.88;13.35;;;;;;;-142.75;64.08;76873.44;5116228;27;20026;-81
2021/05/15 05:25:17;;;;;;;24.70;12.77;;;;;;;-142.75;64.29;76869.50;5109097;27;20083;-81
2021/05/15 05:27:46;;;;;;;22.33;13.27;;;;;;;-142.75;64.08;76865.56;5093446;27;20483;-81
2021/05/15 05:30:16;;;;;;;27.03;13.47;;;;;;;-142.75;64.13;76879.34;5112979;27;20023;-80
2021/05/15 05:32:47;;;;;;;25.13;14.53;;;;;;;-142.75;64.43;76881.31;5081173;27;20697;-82
2021/05/15 05:35:13;;;;;;;27.90;14.90;;;;;;;-142.75;63.71;76869.50;5102485;27;20110;-80
2021/05/15 05:37:39;;;;;;;28.20;15.20;;;;;;;-142.75;63.68;76883.28;5089046;27;20053;-81
2021/05/15 05:40:06;;;;;;;25.75;14.63;;;;;;;-142.75;63.41;76869.50;5108767;27;20028;-83
2021/05/15 05:42:31;;;;;;;26.02;16.38;;;;;;;-142.75;63.45;76865.56;5099621;28;20023;-82
2021/05/15 05:44:57;;;;;;;27.15;16.05;;;;;;;-142.75;63.51;76865.56;5108887;27;20611;-82
2021/05/15 05:47:22;;;;;;;28.08;15.70;;;;;;;-142.75;63.77;76861.63;5107354;27;20025;-80
2021/05/15 05:49:47;;;;;;;29.90;16.58;;;;;;;-142.75;63.47;76861.63;5103701;27;20072;-82
2021/05/15 05:52:13;;;;;;;27.88;15.68;;;;;;;-142.75;63.67;76853.75;5111167;27;20033;-81
2021/05/15 05:54:39;;;;;;;33.35;16.77;;;;;;;-142.75;63.64;76857.69;5108387;27;20029;-82
2021/05/15 05:57:05;;;;;;;31.48;18.00;;;;;;;-142.75;62.94;76857.69;5113384;27;20027;-81
2021/05/15 05:59:30;;;;;;;32.53;17.98;;;;;;;-142.75;62.69;76857.69;5099501;28;20029;-80
2021/05/15 06:01:55;;;;;;;32.45;17.83;;;;;;;-142.75;62.72;76855.72;5107760;28;20025;-84
2021/05/15 06:04:21;;;;;;;34.90;17.95;;;;;;;-142.75;62.64;76847.84;5085725;27;20436;-80
2021/05/15 06:06:46;;;;;;;35.30;19.33;;;;;;;-142.75;62.36;76841.94;5109250;27;20031;-81
2021/05/15 06:09:12;;;;;;;29.63;17.60;;;;;;;-142.75;61.90;76843.91;5103814;27;20045;-81
2021/05/15 06:11:38;;;;;;;31.90;18.50;;;;;;;-142.75;61.85;76818.31;5109449;27;20279;-82
2021/05/15 06:14:03;;;;;;;29.05;17.40;;;;;;;-142.75;61.51;76806.50;5092176;27;20102;-81
2021/05/15 06:16:28;;;;;;;33.30;17.30;;;;;;;-142.75;60.75;76790.78;5086854;27;20050;-81
2021/05/15 06:18:54;;;;;;;31.85;16.70;;;;;;;-142.75;60.08;76775.03;5093761;27;20019;-81
2021/05/15 06:21:19;;;;;;;25.80;15.77;;;;;;;-142.75;60.16;76769.13;5100256;28;20029;-81
2021/05/15 06:23:44;;;;;;;22.80;14.80;;;;;;;-142.75;58.59;76778.97;5091003;27;20276;-81
2021/05/15 06:26:10;;;;;;;24.67;14.27;;;;;;;-142.75;58.81;76767.16;5101804;27;20649;-82
2021/05/15 06:28:38;;;;;;;19.67;13.43;;;;;;;-142.75;58.90;76763.22;5080062;27;20351;-81
2021/05/15 06:31:05;;;;;;;19.95;13.57;;;;;;;-142.75;59.19;76765.19;5081061;27;20114;-81
2021/05/15 06:33:31;;;;;;;26.55;14.32;;;;;;;-142.75;59.44;76769.13;5092557;27;20104;-82
2021/05/15 06:35:56;;;;;;;23.85;14.52;;;;;;;-142.75;58.94;76761.25;5096782;27;20589;-81
2021/05/15 06:38:21;;;;;;;21.90;14.60;;;;;;;-142.75;59.99;76741.56;5077664;27;20102;-81
2021/05/15 06:40:47;;;;;;;29.20;15.88;;;;;;;-142.75;59.47;76735.66;5120572;27;20042;-82
2021/05/15 06:43:12;;;;;;;27.88;15.80;;;;;;;-142.75;59.01;76715.97;5086635;27;20063;-82
2021/05/15 06:45:37;;;;;;;27.33;15.25;;;;;;;-142.75;59.38;76700.22;5096663;28;20608;-83
2021/05/15 06:48:03;;;;;;;21.67;13.15;;;;;;;-142.75;58.03;76704.16;5075728;27;20019;-83
2021/05/15 06:50:29;;;;;;;21.15;13.18;;;;;;;-142.75;58.07;76692.34;5112958;28;20443;-83
2021/05/15 06:52:54;;;;;;;21.83;10.85;;;;;;;-142.75;57.82;76680.53;5103528;28;20025;-83
2021/05/15 06:55:19;;;;;;;16.88;10.95;;;;;;;-142.75;57.20;76688.41;5103356;28;20032;-80
2021/05/15 06:57:45;;;;;;;16.27;8.98;;;;;;;-142.75;56.94;76668.72;5112330;27;20022;-83
2021/05/15 07:00:11;;;;;;;14.35;8.45;;;;;;;-142.75;56.18;76666.75;5090555;28;20077;-80
2021/05/15 07:02:36;;;;;;;15.25;8.93;;;;;;;-142.75;56.38;76645.09;5099993;28;20022;-83
2021/05/15 07:05:02;;;;;;;14.52;8.75;;;;;;;-142.75;56.41;76621.47;5116563;28;20027;-82
2021/05/15 07:07:28;;;;;;;12.50;8.43;;;;;;;-142.75;55.58;76613.59;5100426;28;20166;-82
2021/05/15 07:09:53;;;;;;;14.00;8.35;;;;;;;-142.75;56.14;76597.84;5106220;28;20788;-84
2021/05/15 07:12:21;;;;;;;16.40;9.52;;;;;;;-142.75;56.43;76515.19;5110308;28;20016;-84
2021/05/15 07:14:46;;;;;;;12.75;8.07;;;;;;;-142.75;54.63;76326.22;5100859;28;20520;-83
2021/05/15 07:17:11;;;;;;;15.80;10.50;;;;;;;-142.75;49.80;76115.59;5062835;28;20030;-83
2021/05/15 07:19:37;;;;;;;11.70;8.30;;;;;;;-142.75;47.27;76040.81;5110975;28;20030;-82
2021/05/15 07:22:03;;;;;;;12.98;7.53;;;;;;;-142.75;47.07;75948.31;5085780;28;20027;-84
2021/05/15 07:24:28;;;;;;;;;;;;;;;-142.75;44.37;75847.94;5095368;28;20436;-83
2021/05/15 07:26:53;;;;;;;14.45;6.82;;;;;;;-142.75;44.56;75830.22;5100663;28;20306;-82
2021/05/15 07:29:19;;;;;;;;;;;;;;;-142.75;43.78;75779.03;5070487;28;20470;-82
2021/05/15 07:31:44;;;;;;;10.73;6.28;;;;;;;-142.75;41.75;75786.91;5106828;28;19940;-83
2021/05/15 07:34:09;;;;;;;;;;;;;;;-142.75;41.11;75745.59;5114435;28;20499;-83
2021/05/15 07:36:34;;;;;;;9.75;6.00;;;;;;;-142.75;41.03;75668.84;5114700;28;20384;-85
2021/05/15 07:39:00;;;;;;;;;;;;;;;-142.75;39.55;75623.56;5071606;28;20023;-84
2021/05/15 07:41:25;;;;;;;8.25;5.85;;;;;;;-142.75;39.39;75531.06;5103568;28;19922;-84
2021/05/15 07:43:51;;;;;;;;;;;;;;;-142.75;37.93;75525.16;5108660;28;20027;-84
2021/05/15 07:46:17;;;;;;;10.25;6.10;;;;;;;-142.75;38.56;75422.84;5110726;28;19939;-81
2021/05/15 07:48:43;;;;;;;;;;;;;;;-142.75;36.42;75342.16;5115826;28;20068;-84
2021/05/15 07:51:11;;;;;;;7.95;5.85;;;;;;;-142.75;36.28;75298.84;5108197;28;19994;-84
2021/05/15 07:53:36;;;;;;;10.10;5.95;;;;;;;-142.75;38.33;75611.75;5106432;28;20036;-84
2021/05/15 07:56:03;;;;;;;8.48;6.13;;;;;;;-142.75;37.64;75507.47;5103652;28;20390;-83
2021/05/15 07:58:28;;;;;;;10.60;6.20;;;;;;;-142.75;36.93;75338.22;5104213;28;20041;-85
2021/05/15 08:00:53;;;;;;;9.15;5.60;;;;;;;-142.75;35.54;75334.28;5106481;28;20026;-82
2021/05/15 08:03:19;;;;;;;9.77;6.50;;;;;;;-142.75;34.81;75259.50;5105263;28;20032;-87
2021/05/15 08:05:44;;;;;;;10.90;7.20;;;;;;;-142.75;35.36;75322.47;5076523;27;20029;-86
2021/05/15 08:08:09;;;;;;;11.05;7.00;;;;;;;-142.75;37.95;75509.44;5103836;27;20024;-85
2021/05/15 08:10:35;;;;;;;11.45;7.65;;;;;;;-142.75;38.18;75564.53;5111111;27;20023;-84
2021/05/15 08:13:01;;;;;;;12.63;8.82;;;;;;;-142.75;39.80;75605.84;5107481;27;20030;-86
2021/05/15 08:15:27;;;;;;;10.70;7.75;;;;;;;-142.75;38.97;75493.69;5107070;27;20025;-87
2021/05/15 08:17:53;;;;;;;10.40;7.07;;;;;;;-142.75;37.95;75405.13;5109296;27;20113;-87
2021/05/15 08:20:20;;;;;;;11.80;8.07;;;;;;;-142.75;38.05;75334.28;5107444;27;20159;-84
2021/05/15 08:22:45;;;;;;;9.35;6.95;;;;;;;-142.75;35.14;75241.78;5083352;27;20110;-86
2021/05/15 08:25:12;;;;;;;9.68;7.30;;;;;;;-142.75;35.28;75302.78;5109822;27;20083;-83
2021/05/15 08:27:40;;;;;;;12.70;8.35;;;;;;;-142.75;35.52;75275.25;5085065;27;20050;-86
2021/05/15 08:30:09;;;;;;;11.85;8.00;;;;;;;-142.75;35.95;75208.34;5095828;27;20369;-83
2021/05/15 08:32:34;;;;;;;12.40;8.15;;;;;;;-142.75;38.49;75163.09;5100886;27;20065;-84
2021/05/15 08:35:00;;;;;;;12.23;7.93;;;;;;;-142.75;36.00;75155.22;5111385;27;20055;-86
2021/05/15 08:37:26;;;;;;;13.02;8.10;;;;;;;-142.75;35.64;75336.25;5090608;27;20038;-84
2021/05/15 08:39:52;;;;;;;12.18;8.23;;;;;;;-142.75;38.12;75458.25;5108197;27;20106;-81
2021/05/15 08:42:18;;;;;;;14.57;9.20;;;;;;;-142.75;38.01;75647.19;5086204;27;20031;-84
2021/05/15 08:44:46;;;;;;;17.15;10.55;;;;;;;-142.75;43.54;76011.28;5113217;27;20046;-84
2021/05/15 08:47:14;;;;;;;14.02;9.63;;;;;;;-142.75;42.98;75816.44;5102934;27;20022;-83
2021/05/15 08:49:41;;;;;;;14.43;9.68;;;;;;;-142.75;42.47;75700.31;5076694;27;20558;-85
2021/05/15 08:52:06;;;;;;;15.77;10.30;;;;;;;-142.75;42.80;75964.03;5111488;27;20023;-83
2021/05/15 08:54:32;;;;;;;;;;;;;;;-142.75;42.86;75885.31;5109581;27;20078;-83
2021/05/15 08:56:57;;;;;;;19.88;11.90;;;;;;;-142.75;43.42;75964.03;5108158;27;20286;-83
2021/05/15 08:59:22;;;;;;;;;;;;;;;-142.75;44.49;75865.63;5109450;27;20019;-84
2021/05/15 09:01:48;;;;;;;17.45;11.48;;;;;;;-142.75;42.86;75796.75;5110869;27;19911;-82
2021/05/15 09:04:13;;;;;;;16.75;11.35;;;;;;;-142.75;43.21;75802.66;5107783;27;20027;-83
2021/05/15 09:06:40;;;;;;;;;;;;;;;-142.75;43.34;75847.94;5077463;27;20030;-84
2021/05/15 09:09:06;;;;;;;19.63;12.15;;;;;;;-142.75;44.47;75861.69;5070548;27;19919;-83
2021/05/15 09:11:31;;;;;;;15.57;10.65;;;;;;;-142.75;43.33;75897.13;5097934;27;20406;-81
2021/05/15 09:13:56;;;;;;;;;;;;;;;-142.75;44.96;76007.34;5110589;27;20031;-83
2021/05/15 09:16:22;;;;;;;18.00;11.55;;;;;;;-142.75;46.09;76009.31;5106061;27;19915;-82
2021/05/15 09:18:47;;;;;;;;;;;;;;;-142.75;46.41;76078.19;5106689;27;20116;-82
2021/05/15 09:21:15;;;;;;;17.77;12.40;;;;;;;-142.75;46.82;76062.47;5109217;27;20372;-84
2021/05/15 09:23:45;;;;;;;18.92;13.15;;;;;;;-142.75;47.21;76050.66;5077618;27;20029;-79
2021/05/15 09:26:23;;;;;;;18.55;13.38;;;;;;;-142.75;47.92;76046.72;5086531;27;20019;-83
2021/05/15 09:28:57;;;;;;;20.45;13.63;;;;;;;-142.75;46.59;76034.91;5093416;28;20032;-84
2021/05/15 09:31:30;;;;;;;20.23;13.63;;;;;;;-142.75;47.87;76040.81;5079744;27;20158;-82
2021/05/15 09:33:58;;;;;;;20.60;13.00;;;;;;;-142.75;46.84;76011.28;5097823;27;20039;-83
2021/05/15 09:36:32;;;;;;;25.02;15.20;;;;;;;-142.75;47.14;76019.16;5100846;27;20470;-83
2021/05/15 09:39:04;;;;;;;21.70;15.05;;;;;;;-142.75;48.41;76040.81;5103789;27;20027;-83
2021/05/15 09:41:36;;;;;;;26.58;15.48;;;;;;;-142.75;46.41;76090.00;5101700;27;20053;-83
2021/05/15 09:44:06;;;;;;;27.08;14.85;;;;;;;-142.75;47.62;76160.88;5104192;27;20027;-86
2021/05/15 09:46:34;;;;;;;27.30;16.00;;;;;;;-142.75;49.51;76168.75;5106527;27;20031;-84
2021/05/15 09:48:59;;;;;;;25.70;16.17;;;;;;;-142.75;49.99;76160.88;5069804;27;20025;-83
2021/05/15 09:51:25;;;;;;;29.30;18.02;;;;;;;-142.75;48.57;76180.56;5113286;27;20449;-82
2021/05/15 09:53:50;;;;;;;31.17;18.42;;;;;;;-142.75;49.80;76154.97;5073799;27;20032;-83
2021/05/15 09:56:29;;;;;;;29.35;19.23;;;;;;;-142.75;49.05;76170.72;5074123;27;20069;-83
2021/05/15 09:58:56;;;;;;;29.25;17.65;;;;;;;-142.75;49.17;76206.13;5100280;27;20054;-82
2021/05/15 10:01:22;;;;;;;31.65;19.30;;;;;;;-142.75;49.32;76204.16;5106323;27;20490;-83
2021/05/15 10:03:48;;;;;;;25.73;17.98;;;;;;;-142.75;50.39;76174.66;5102581;28;20437;-81
2021/05/15 10:06:15;;;;;;;;;;;;;;;-142.75;49.74;76182.53;5081587;27;20070;-81
2021/05/15 10:08:42;;;;;;;33.15;21.65;;;;;;;-142.75;50.38;76231.72;5106376;27;20012;-85
2021/05/15 10:11:08;;;;;;;33.33;21.80;;;;;;;-142.75;51.56;76239.59;5101301;27;20066;-83
2021/05/15 10:13:34;;;;;;;;;;;;;;;-142.75;51.96;76239.59;5084580;27;20027;-82
2021/05/15 10:16:01;;;;;;;38.30;23.02;;;;;;;-142.75;52.44;76223.84;5101619;27;19980;-84
2021/05/15 10:18:31;;;;;;;35.65;23.10;;;;;;;-142.75;51.36;76219.91;5105154;27;20575;-83
2021/05/15 10:20:57;;;;;;;39.15;25.25;;;;;;;-142.75;50.97;76263.22;5084515;27;20022;-85
2021/05/15 10:23:44;;;;;;;41.75;25.65;;;;;;;-142.75;52.18;76243.53;5101572;27;20505;-82
2021/05/15 10:26:15;;;;;;;42.15;27.83;;;;;;;-142.75;51.29;76255.34;5112837;27;20011;-84
2021/05/15 10:28:42;;;;;;;41.03;27.10;;;;;;;-142.75;52.27;76314.41;5099268;27;20042;-81
2021/05/15 10:31:16;;;;;;;41.50;27.58;;;;;;;-142.75;53.24;76286.84;5103931;27;20402;-83
2021/05/15 10:33:47;;;;;;;47.90;29.65;;;;;;;-142.75;53.44;76298.66;5079498;27;20098;-83
2021/05/15 10:36:23;;;;;;;46.55;27.92;;;;;;;-142.75;52.88;76284.88;5080080;27;20074;-84
2021/05/15 10:38:51;;;;;;;47.65;28.27;;;;;;;-142.75;52.80;76265.19;5110732;27;20476;-82
2021/05/15 10:41:18;;;;;;;41.50;26.75;;;;;;;-142.75;52.77;76241.56;5109738;27;20031;-83
2021/05/15 10:43:45;;;;;;;47.75;29.02;;;;;;;-142.75;52.69;76259.28;5080346;27;20025;-83
2021/05/15 10:46:21;;;;;;;47.42;29.17;;;;;;;-142.75;53.34;76247.47;5079166;27;20384;-84
2021/05/15 10:48:59;;;;;;;47.70;27.90;;;;;;;-142.75;53.19;76243.53;5099726;27;20503;-82
2021/05/15 10:51:47;;;;;;;45.38;27.83;;;;;;;-142.75;53.47;76239.59;5099871;27;20441;-83
2021/05/15 10:54:16;;;;;;;50.28;30.13;;;;;;;-142.75;53.34;76251.41;5106043;28;20029;-84
2021/05/15 10:56:41;;;;;;;55.00;31.80;;;;;;;-142.75;54.11;76278.97;5107327;28;20027;-84
2021/05/15 10:59:11;;;;;;;49.65;30.85;;;;;;;-142.75;54.73;76269.13;5076562;27;20433;-81
2021/05/15 11:01:44;;;;;;;46.03;30.73;;;;;;;-142.75;54.34;76263.22;5089725;28;20021;-82
2021/05/15 11:04:19;;;;;;;50.25;29.88;;;;;;;-142.75;55.21;76247.47;5083525;28;20021;-84
2021/05/15 11:07:11;;;;;;;43.22;29.35;;;;;;;-142.75;54.81;76251.41;5083198;28;20023;-84
2021/05/15 11:09:48;;;;;;;52.60;31.83;;;;;;;-142.75;54.16;76259.28;5102699;28;20102;-85